createdAt,value
2022-08-07T00:02:53.586Z,23.12
2022-08-07T00:08:00.089Z,22.54
2022-08-07T00:13:24.054Z,22.63
2022-08-07T00:18:30.636Z,22.39
2022-08-07T00:23:37.272Z,22.38
2022-08-07T00:28:46.215Z,22.20
2022-08-07T00:34:00.948Z,22.09
2022-08-07T00:39:05.171Z,22.14
2022-08-07T00:44:10.692Z,22.23
2022-08-07T00:50:16.717Z,22.09
2022-08-07T00:54:43.848Z,21.83
2022-08-07T00:59:49.967Z,21.90
2022-08-07T01:04:58.263Z,21.99
2022-08-07T01:10:04.991Z,22.00
2022-08-07T01:15:18.988Z,22.04
2022-08-07T01:20:34.203Z,21.64
2022-08-07T01:25:55.099Z,21.68
2022-08-07T01:31:02.890Z,21.40
2022-08-07T01:36:12.207Z,21.50
2022-08-07T01:41:26.349Z,21.25
2022-08-07T01:46:36.605Z,21.44
2022-08-07T01:52:04.127Z,21.46
2022-08-07T01:57:24.423Z,21.49
2022-08-07T02:03:19.320Z,21.50
2022-08-07T02:08:02.179Z,21.41
2022-08-07T02:13:15.023Z,21.53
2022-08-07T02:18:29.981Z,21.47
2022-08-07T02:23:36.385Z,21.26
2022-08-07T02:28:43.944Z,21.36
2022-08-07T02:34:03.583Z,21.32
2022-08-07T02:39:17.517Z,21.23
2022-08-07T02:44:47.768Z,21.27
2022-08-07T02:49:58.572Z,21.12
2022-08-07T02:55:27.396Z,20.90
2022-08-07T03:00:39.115Z,21.04
2022-08-07T03:05:46.357Z,20.93
2022-08-07T03:10:53.184Z,20.92
2022-08-07T03:16:07.724Z,20.93
2022-08-07T03:21:12.711Z,20.64
2022-08-07T03:26:26.313Z,20.59
2022-08-07T03:31:42.911Z,20.29
2022-08-07T03:36:49.864Z,20.38
2022-08-07T03:41:54.183Z,20.40
2022-08-07T03:47:12.987Z,20.44
2022-08-07T03:52:22.773Z,20.69
2022-08-07T03:58:32.637Z,20.62
2022-08-07T04:03:03.794Z,20.35
2022-08-07T04:08:18.484Z,20.46
2022-08-07T04:13:27.703Z,20.48
2022-08-07T04:18:59.393Z,20.51
2022-08-07T04:24:07.002Z,20.43
2022-08-07T04:29:15.302Z,20.35
2022-08-07T04:34:24.318Z,20.00
2022-08-07T04:39:38.664Z,20.07
2022-08-07T04:44:54.453Z,20.18
2022-08-07T04:50:15.372Z,20.10
2022-08-07T04:58:10.233Z,19.92
2022-08-07T05:01:18.205Z,19.68
2022-08-07T05:06:43.507Z,19.95
2022-08-07T05:11:57.243Z,20.24
2022-08-07T05:17:12.013Z,20.54
2022-08-07T05:22:27.679Z,20.72
2022-08-07T05:28:16.662Z,20.69
2022-08-07T05:33:04.183Z,21.04
2022-08-07T05:38:11.796Z,21.24
2022-08-07T05:43:18.594Z,21.12
2022-08-07T05:48:26.424Z,21.26
2022-08-07T05:54:13.954Z,21.31
2022-08-07T05:59:00.877Z,21.52
2022-08-07T06:04:06.817Z,21.82
2022-08-07T06:09:20.125Z,22.12
2022-08-07T06:14:28.655Z,22.28
2022-08-07T06:19:52.087Z,22.66
2022-08-07T06:25:03.974Z,23.06
2022-08-07T06:30:32.300Z,23.67
2022-08-07T06:35:45.543Z,24.03
2022-08-07T06:40:56.473Z,24.35
2022-08-07T06:46:03.445Z,24.73
2022-08-07T06:51:15.400Z,24.82
2022-08-07T06:56:48.538Z,25.06
2022-08-07T07:02:00.311Z,25.34
2022-08-07T07:07:10.507Z,25.50
2022-08-07T07:12:48.491Z,25.82
2022-08-07T07:18:00.120Z,26.05
2022-08-07T07:24:09.307Z,26.39
2022-08-07T07:28:48.737Z,26.69
2022-08-07T07:34:11.250Z,26.94
2022-08-07T07:39:22.219Z,27.04
2022-08-07T07:44:30.886Z,27.29
2022-08-07T07:50:32.772Z,27.17
2022-08-07T07:55:03.797Z,27.55
2022-08-07T08:00:11.292Z,27.88
2022-08-07T08:05:22.347Z,28.19
2022-08-07T08:10:35.543Z,28.55
2022-08-07T08:15:57.877Z,28.30
2022-08-07T08:21:04.760Z,28.13
2022-08-07T08:26:31.529Z,28.05
2022-08-07T08:32:04.720Z,28.64
2022-08-07T08:38:01.795Z,28.71
2022-08-07T08:42:44.778Z,28.40
2022-08-07T08:48:01.883Z,28.11
2022-08-07T08:53:22.938Z,28.11
2022-08-07T08:58:36.974Z,28.22
2022-08-07T09:03:52.916Z,27.96
2022-08-07T09:09:29.838Z,28.55
2022-08-07T09:14:42.108Z,29.11
2022-08-07T09:20:03.038Z,29.19
2022-08-07T09:25:30.933Z,29.17
2022-08-07T09:30:54.682Z,28.74
2022-08-07T09:36:07.886Z,28.21
2022-08-07T09:41:24.495Z,27.53
2022-08-07T09:47:52.329Z,27.40
2022-08-07T09:52:34.387Z,27.57
2022-08-07T09:58:17.868Z,27.88
2022-08-07T10:04:04.883Z,27.66
2022-08-07T10:09:23.825Z,27.65
2022-08-07T10:15:02.251Z,27.57
2022-08-07T10:20:22.155Z,27.87
2022-08-07T10:25:51.921Z,28.00
2022-08-07T10:31:12.169Z,27.96
2022-08-07T10:36:29.740Z,27.75
2022-08-07T10:41:51.230Z,27.33
2022-08-07T10:47:11.984Z,26.94
2022-08-07T10:52:33.541Z,26.37
2022-08-07T10:57:51.554Z,26.79
2022-08-07T11:03:11.045Z,27.13
2022-08-07T11:08:30.257Z,27.20
2022-08-07T11:14:41.966Z,26.95
2022-08-07T11:19:11.240Z,26.73
2022-08-07T11:24:23.452Z,27.47
2022-08-07T11:29:41.927Z,27.99
2022-08-07T11:34:52.346Z,27.65
2022-08-07T11:40:09.199Z,27.84
2022-08-07T11:45:35.670Z,27.72
2022-08-07T11:50:57.235Z,27.47
2022-08-07T11:56:27.306Z,27.40
2022-08-07T12:01:59.946Z,27.40
2022-08-07T12:07:20.399Z,27.41
2022-08-07T12:12:38.996Z,27.70
2022-08-07T12:17:58.644Z,27.59
2022-08-07T12:23:37.126Z,27.51
2022-08-07T12:28:53.963Z,27.51
2022-08-07T12:34:04.261Z,27.68
2022-08-07T12:39:42.525Z,27.94
2022-08-07T12:44:45.110Z,28.42
2022-08-07T12:50:05.093Z,28.93
2022-08-07T12:55:40.646Z,29.20
2022-08-07T13:00:51.810Z,28.68
2022-08-07T13:06:21.424Z,28.29
2022-08-07T13:12:03.126Z,27.99
2022-08-07T13:17:11.635Z,27.79
2022-08-07T13:22:31.848Z,27.58
2022-08-07T13:28:11.007Z,27.46
2022-08-07T13:34:29.875Z,27.28
2022-08-07T13:38:43.576Z,27.33
2022-08-07T13:43:52.517Z,27.37
2022-08-07T13:49:08.689Z,27.47
2022-08-07T13:54:33.980Z,27.98
2022-08-07T13:59:39.765Z,28.04
2022-08-07T14:04:54.641Z,28.29
2022-08-07T14:10:17.483Z,28.26
2022-08-07T14:15:31.903Z,28.26
2022-08-07T14:20:49.262Z,28.21
2022-08-07T14:26:30.006Z,28.14
2022-08-07T14:31:43.440Z,28.12
2022-08-07T14:37:03.446Z,27.89
2022-08-07T14:42:19.758Z,27.51
2022-08-07T14:47:33.785Z,27.49
2022-08-07T14:52:39.965Z,27.56
2022-08-07T14:57:58.187Z,27.49
2022-08-07T15:03:18.850Z,27.58
2022-08-07T15:13:56.199Z,27.54
2022-08-07T15:19:05.512Z,27.67
2022-08-07T15:25:14.760Z,27.93
2022-08-07T15:35:16.822Z,27.75
2022-08-07T15:40:33.981Z,27.55
2022-08-07T15:45:56.427Z,27.47
2022-08-07T15:56:37.285Z,27.00
2022-08-07T16:02:01.912Z,26.85
2022-08-07T16:08:28.921Z,26.90
2022-08-07T16:13:01.088Z,26.84
2022-08-07T16:18:49.869Z,26.92
2022-08-07T16:24:03.976Z,26.85
2022-08-07T16:30:17.708Z,26.71
2022-08-07T16:34:51.096Z,26.74
2022-08-07T16:40:36.710Z,26.59
2022-08-07T16:52:49.213Z,25.80
2022-08-07T16:58:01.812Z,25.73
2022-08-07T17:03:10.519Z,25.72
2022-08-07T17:09:09.722Z,25.65
2022-08-07T17:14:18.307Z,25.49
2022-08-07T17:20:02.033Z,25.68
2022-08-07T17:25:10.178Z,25.20
2022-08-07T17:30:20.522Z,25.30
2022-08-07T17:35:50.782Z,25.25
2022-08-07T17:42:02.739Z,24.37
2022-08-07T17:46:41.570Z,24.22
2022-08-07T17:52:01.224Z,24.10
2022-08-07T17:57:18.724Z,23.72
2022-08-07T18:02:31.978Z,23.38
2022-08-07T18:07:46.064Z,22.11
2022-08-07T18:13:10.985Z,21.47
2022-08-07T18:18:46.259Z,21.56
2022-08-07T18:24:00.696Z,21.63
2022-08-07T18:30:06.320Z,21.37
2022-08-07T18:35:10.476Z,21.44
2022-08-07T18:40:42.246Z,21.33
2022-08-07T18:46:24.416Z,20.70
2022-08-07T18:52:43.946Z,20.79
2022-08-07T18:57:31.031Z,20.91
2022-08-07T19:02:43.031Z,21.14
2022-08-07T19:07:59.256Z,21.01
2022-08-07T19:13:21.481Z,20.81
2022-08-07T19:18:45.133Z,20.90
2022-08-07T19:23:58.810Z,21.34
2022-08-07T19:31:06.200Z,23.67
2022-08-07T19:34:36.337Z,23.96
2022-08-07T19:39:57.895Z,23.97
2022-08-07T19:45:10.122Z,24.14
2022-08-07T19:50:44.189Z,23.83
2022-08-07T19:55:57.536Z,23.25
2022-08-07T20:01:03.148Z,21.09
2022-08-07T20:06:30.507Z,20.55
2022-08-07T20:12:21.909Z,23.85
2022-08-07T20:17:09.032Z,23.69
2022-08-07T20:22:18.084Z,23.65
2022-08-07T20:27:47.450Z,23.55
2022-08-07T20:32:56.417Z,23.39
2022-08-07T20:38:03.077Z,23.45
2022-08-07T20:43:19.705Z,23.38
2022-08-07T20:48:30.267Z,23.00
2022-08-07T20:54:02.908Z,21.46
2022-08-07T20:59:06.166Z,20.11
2022-08-07T21:04:33.974Z,22.27
2022-08-07T21:09:51.579Z,22.77
2022-08-07T21:15:08.786Z,22.16
2022-08-07T21:20:26.677Z,22.85
2022-08-07T21:25:56.338Z,22.78
2022-08-07T21:31:05.267Z,22.60
2022-08-07T21:36:31.189Z,20.83
2022-08-07T21:41:52.074Z,19.83
2022-08-07T21:47:17.259Z,20.60
2022-08-07T21:52:33.947Z,22.60
2022-08-07T21:57:52.158Z,22.36
2022-08-07T22:03:06.293Z,22.03
2022-08-07T22:08:12.520Z,21.77
2022-08-07T22:13:24.436Z,20.11
2022-08-07T22:18:56.357Z,19.45
2022-08-07T22:24:10.471Z,21.94
2022-08-07T22:29:38.092Z,21.55
2022-08-07T22:34:54.016Z,21.50
2022-08-07T22:40:04.961Z,20.93
2022-08-07T22:46:04.496Z,21.40
2022-08-07T22:51:07.566Z,21.70
2022-08-07T22:56:13.693Z,21.39
2022-08-07T23:01:49.614Z,21.17
2022-08-07T23:07:39.878Z,21.04
2022-08-07T23:12:53.953Z,20.55
2022-08-07T23:18:11.000Z,18.85
2022-08-07T23:24:06.821Z,18.52
2022-08-07T23:29:43.937Z,20.75
2022-08-07T23:35:11.956Z,20.96
2022-08-07T23:40:34.468Z,20.61
2022-08-07T23:46:03.795Z,20.52
2022-08-07T23:52:59.866Z,20.58
2022-08-07T23:56:53.667Z,20.38
